Forside
METAR-TAF:

METAR-TAF

Lufthavne :

Kristiansand Lufthavn. Kjevik

Kristiansand, Norge

Breddekreds: 58-12N, længdekreds: 008-05E, højde: 1 m

Aktuelle vejr

Denne rapport blev lavet for 29 minutter siden, kl. 02:20 UTC
Vind 1 kt fra varierende retninger
Temperatur 10°C
Fugtighed 66%
Tryk 1022 hPa
Sigt 10 km eller mere

METAR: ENCN 250220Z AUTO VRB01KT 9999 NCD 10/04 Q1022

Tid: 04:49 (02:49 UTC)

Vejrudsigter

Denne rapport blev lavet for 49 minutter siden, kl. 02:00 UTC
Foreløbig gælder fra 25 på 03 UTC til 25 på 12 UTC
Vind 8 kt fra nordvest
Sigt 10 km eller mere
ingen skyer under 1500m og ingen cumulonimbus
ændring
fra 25 på 10 UTC til 25 på 12 UTC
Vind 10 kt fra vestsydvest

TAF: ENCN 250200Z 2503/2512 32008KT CAVOK BECMG 2510/2512 24010KT

Vejrobservationer og prognoser fra mere end 4000 lufthavne (METAR og TAF).

De gule og røde prikker repræsenterer de meteorologiske stationer.

Flyt musen over at se navnet på stationen.

Så klik over at se vejr observationer og prognoser.

At skifte det kort: Klik på de grønne knapper med et sort kors for at zoome ind; på den grønne knap med en bindestreg for at zoome ud; eller på de grønne pile for tilstødende kort.


METAR-TAF: